Aérodrome :
LOGIN :

S'inscrire | Disclaimer

   EN    FR    IT 

 










Légende :    VFR   VFR Marginal   IFR   IFR Intensif   IFR Très Intensif
Visi : 
Plafond : 
>= 8 km
>= 3000ft
5 à 8 km
1000 à 3000 ft
1500m à 5 km
500 à 1000 ft
800 à 1500m
200 à 500 ft
< 800m
< 200 ft
Symboles :   Orages  Brouillard  Fortes neiges  Fortes précipitations  Vent > 20 kt
SIGMETs :   Divers  Orages  Givrage  Turbulence  Onde Orograph.  Cendres Volcan.







- Altitude de l'aérodrome : 289 ft
- Code IATA : ZAD


LDZD - Zadar

DERNIER METAR :
  • 262330Z VRB02KT CAVOK 17/15 Q1019

METARs EXPIRÉS :
  • 262300Z 07003KT 040V160 CAVOK 17/15 Q1019
  • 262230Z 13002KT CAVOK 17/15 Q1019
  • 262200Z 00000KT CAVOK 17/15 Q1019
  • 262130Z 00000KT CAVOK 17/15 Q1019 NOSIG
  • 262100Z 14003KT 110V170 CAVOK 18/16 Q1019 NOSIG

TAF TAF LDZD
Valide du 27 à 00h jusqu'au 28 à 00h UTC


262325Z 2700/2800 06006KT CAVOK TX29/2712Z TN16/2704Z
BECMG 2710/2712 30010KT
BECMG 2716/2718 10005KT
Pas de NOTAMs connus pour ce terrain.



MET'MAP, la Météo Aéronautique d'un coup d'oeil ! - Copyright ORBIFLY Décembre 2007 - Disclaimer

ORBIFLY MET'MAP TEAM :

Programmation & Développement : Alexandra Zaïnal
Conception & Développement : Baudouin d'Aumeries
Co-Programmation & Développement : Marc-Olivier Méhu
Soutien technique & logistique : Manuel Goepfert

Contact : metmap@orbifly.com




SOURCES & CREDITS :

   NOAA